Falken — SBCH — position and weather

sailwx.info

Track history (hours):
 
Tides and Currents Weather Stations Pressure Air Temp Water Temp Dewpoint Dewpoint Depression Visibility Wind Speed Wind Dir Waves Ship Positions

Falken (Sweden)

Last reported at 2015-Jul-05 12:33 UTC. Time now 2015-Jul-05 12:48 UTC.
Position N 55°48' E 015°05'.

Length 40 m; draft 4.2 m.

Type: Sailing vessel. MMSI: 265070000.

Date/timePositionNaut miles runAvg speedWind from/ knotsBaromVisibWave heightAir tempDewpointWater temp
2015-Jul-05 12:33N 55°48' E 015°05'25 5.7
2015-Jul-05 08:08N 56°07' E 015°35'1 2.4
2015-Jul-05 07:34N 56°08' E 015°36'2 2.0
2015-Jul-05 06:33N 56°10' E 015°36'0 0.0
2015-Jul-05 05:33N 56°10' E 015°36'0 0.0
2015-Jul-05 04:33N 56°10' E 015°36'0 0.0
2015-Jul-05 03:27N 56°10' E 015°36'0 0.0
2015-Jul-05 02:27N 56°10' E 015°36'0 0.0
2015-Jul-05 01:33N 56°10' E 015°36'0 0.0
2015-Jul-05 00:33N 56°10' E 015°36'0 0.0
2015-Jul-04 23:33N 56°10' E 015°36'0 0.0
2015-Jul-04 22:27N 56°10' E 015°36'0 0.0
2015-Jul-04 21:33N 56°10' E 015°36'0 0.0
2015-Jul-04 20:33N 56°10' E 015°36'0 0.0
2015-Jul-04 19:33N 56°10' E 015°36'0 0.0
2015-Jul-04 18:33N 56°10' E 015°36'0 0.0
2015-Jul-04 17:33N 56°10' E 015°36'0 0.0
2015-Jul-04 16:24N 56°10' E 015°36'0 0.0
2015-Jul-04 15:33N 56°10' E 015°36'0 0.0
2015-Jul-04 14:33N 56°10' E 015°36'1 0.7
2015-Jul-04 13:33N 56°10' E 015°37'1 1.0
2015-Jul-04 12:32N 56°09' E 015°35'0 0.0
2015-Jul-04 11:32N 56°09' E 015°35'0 0.0
2015-Jul-04 10:26N 56°09' E 015°35'0 0.0
2015-Jul-04 09:32N 56°09' E 015°35'0 0.0
2015-Jul-04 08:32N 56°09' E 015°35'0 0.0
2015-Jul-04 07:32N 56°09' E 015°35'0 0.0
2015-Jul-04 06:20N 56°09' E 015°35'0 0.0
2015-Jul-04 04:32N 56°09' E 015°35'0 0.0
2015-Jul-04 03:32N 56°09' E 015°35'0 0.0
2015-Jul-04 02:32N 56°09' E 015°35'0 0.0
2015-Jul-04 01:32N 56°09' E 015°35'0 0.0
2015-Jul-04 00:32N 56°09' E 015°35'0 0.0
2015-Jul-03 23:20N 56°09' E 015°35'0 0.0
2015-Jul-03 12:26N 56°09' E 015°35'0 0.0
2015-Jul-03 11:32N 56°09' E 015°35'0 0.0
2015-Jul-03 10:32N 56°09' E 015°35'0 0.0
2015-Jul-03 09:32N 56°09' E 015°35'0 0.3
2015-Jul-03 08:27N 56°09' E 015°36'1 0.4
2015-Jul-03 06:19N 56°09' E 015°37'0 0.0
2015-Jul-03 01:13N 56°09' E 015°37'0 0.0
2015-Jul-03 00:31N 56°09' E 015°37'0 0.0
2015-Jul-02 23:31N 56°09' E 015°37'0 0.0
2015-Jul-02 22:28N 56°09' E 015°37'0 0.0
2015-Jul-02 21:31N 56°09' E 015°37'0 0.0
2015-Jul-02 20:25N 56°09' E 015°37'0 0.0
2015-Jul-02 19:16N 56°09' E 015°37'0 0.0
2015-Jul-02 17:31N 56°09' E 015°37'1 0.9
2015-Jul-02 16:34N 56°10' E 015°36'0 0.4
2015-Jul-02 15:32N 56°10' E 015°36'5 4.7
2015-Jul-02 14:32N 56°05' E 015°34'7 7.4
2015-Jul-02 13:33N 56°02' E 015°23'8 8.3
2015-Jul-02 12:33N 56°00' E 015°08'8 8.3
2015-Jul-02 11:33N 55°59' E 014°53'8 8.1
2015-Jul-02 10:33N 55°57' E 014°39'8 7.7
2015-Jul-02 09:33N 55°56' E 014°26'4 0.8
2015-Jul-02 04:19N 55°56' E 014°18'0 0.0
2015-Jul-02 03:28N 55°56' E 014°18'0 0.0
2015-Jul-02 00:31N 55°56' E 014°18'0 0.0
2015-Jul-01 23:28N 55°56' E 014°18'3 0.2
2015-Jul-01 06:24N 55°56' E 014°24'0 0.3
2015-Jul-01 05:28N 55°56' E 014°24'5 3.6
2015-Jul-01 04:13N 55°54' E 014°32'0 0.3
2015-Jul-01 03:27N 55°54' E 014°31'1 0.8
2015-Jul-01 02:32N 55°54' E 014°30'2 1.7
2015-Jul-01 01:32N 55°52' E 014°30'2 1.6
2015-Jul-01 00:33N 55°51' E 014°29'1 1.5
2015-Jun-30 23:33N 55°49' E 014°28'2 1.9
2015-Jun-30 22:25N 55°47' E 014°28'20 4.8
2015-Jun-30 18:09N 55°27' E 014°20'4 5.6
2015-Jun-30 17:31N 55°24' E 014°17'6 5.8
2015-Jun-30 16:32N 55°19' E 014°14'4 4.2
2015-Jun-30 15:32N 55°18' E 014°06'20 5.0
2015-Jun-30 11:33N 55°19' E 013°31'4 4.2
2015-Jun-30 10:33N 55°19' E 013°24'4 3.8
2015-Jun-30 09:32N 55°18' E 013°17'3 3.5
2015-Jun-30 08:33N 55°17' E 013°11'4 4.0
2015-Jun-30 07:33N 55°17' E 013°04'4 3.8
2015-Jun-30 06:32N 55°16' E 012°58'3 3.5
2015-Jun-30 05:33N 55°15' E 012°52'8 8.5
2015-Jun-30 04:33N 55°18' E 012°39'8 8.1
2015-Jun-30 03:33N 55°26' E 012°41'8 7.7
2015-Jun-30 02:33N 55°33' E 012°47'8 7.9
2015-Jun-30 01:33N 55°39' E 012°56'8 8.2
2015-Jun-30 00:33N 55°46' E 012°49'8 8.2
2015-Jun-29 23:33N 55°54' E 012°44'8 8.2
2015-Jun-29 22:33N 56°02' E 012°39'7 7.3
2015-Jun-29 21:33N 56°07' E 012°31'7 7.3
2015-Jun-29 20:33N 56°14' E 012°26'6 6.3
2015-Jun-29 19:33N 56°20' E 012°28'6 5.9
2015-Jun-29 18:33N 56°25' E 012°35'4 3.6
2015-Jun-29 17:33N 56°28' E 012°38'6 6.0
2015-Jun-29 16:33N 56°31' E 012°47'1 1.4
2015-Jun-29 15:33N 56°32' E 012°47'4 3.6
2015-Jun-29 14:33N 56°36' E 012°45'4 3.9
2015-Jun-29 13:33N 56°39' E 012°40'3 3.0
2015-Jun-29 12:33N 56°41' E 012°38'3 2.8
2015-Jun-29 11:33N 56°44' E 012°35'4 4.2
2015-Jun-29 10:33N 56°48' E 012°32'5 4.7
2015-Jun-29 09:33N 56°52' E 012°28'1 0.7
2015-Jun-29 08:33N 56°52' E 012°27'3 3.2
2015-Jun-29 07:33N 56°53' E 012°22'4 4.5
2015-Jun-29 06:33N 56°57' E 012°17'5 5.0
2015-Jun-29 05:33N 57°01' E 012°11'5 5.1
2015-Jun-29 04:33N 57°04' E 012°04'4 3.9
2015-Jun-29 03:33N 57°07' E 011°59'6 5.8
2015-Jun-29 02:33N 57°12' E 011°54'7 6.9
2015-Jun-29 01:33N 57°17' E 011°46'5 5.2
2015-Jun-29 00:33N 57°22' E 011°40'6 5.7
2015-Jun-28 23:33N 57°27' E 011°35'4 4.2
2015-Jun-28 22:33N 57°30' E 011°32'2 2.0
2015-Jun-28 21:33N 57°30' E 011°36'2 1.7
2015-Jun-28 20:33N 57°30' E 011°39'2 2.2
2015-Jun-28 19:33N 57°32' E 011°36'1 1.3
2015-Jun-28 18:33N 57°33' E 011°37'2 1.8
2015-Jun-28 17:33N 57°35' E 011°35'2 2.3
2015-Jun-28 16:33N 57°35' E 011°40'4 3.7
2015-Jun-28 15:33N 57°37' E 011°34'2 2.3
2015-Jun-28 14:34N 57°37' E 011°38'2 2.0
2015-Jun-28 13:34N 57°38' E 011°41'6 5.9
2015-Jun-28 12:34N 57°41' E 011°50'4 4.4
2015-Jun-28 11:33N 57°43' E 011°58'0 0.0
2015-Jun-28 10:31N 57°43' E 011°58'0 0.0
2015-Jun-28 09:31N 57°43' E 011°58'0 0.0
2015-Jun-28 08:31N 57°43' E 011°58'0 0.0
2015-Jun-28 07:31N 57°43' E 011°58'0 0.0
2015-Jun-28 06:31N 57°43' E 011°58'0 0.0
2015-Jun-28 05:31N 57°43' E 011°58'0 0.0
2015-Jun-28 04:31N 57°43' E 011°58'0 0.0
2015-Jun-28 03:31N 57°43' E 011°58'0 0.0
2015-Jun-28 02:31N 57°43' E 011°58'0 0.0
2015-Jun-28 01:31N 57°43' E 011°58'0 0.0
2015-Jun-28 00:31N 57°43' E 011°58'0 0.0
2015-Jun-27 23:31N 57°43' E 011°58'0 0.0
2015-Jun-27 22:31N 57°43' E 011°58'0 0.0
2015-Jun-27 21:31N 57°43' E 011°58'0 0.0
2015-Jun-27 20:28N 57°43' E 011°58'0 0.0
2015-Jun-27 19:31N 57°43' E 011°58'0 0.0
2015-Jun-27 18:31N 57°43' E 011°58'0 0.0
2015-Jun-27 17:31N 57°43' E 011°58'0 0.0
2015-Jun-27 16:31N 57°43' E 011°58'0 0.0
2015-Jun-27 15:31N 57°43' E 011°58'0 0.0
2015-Jun-27 14:31N 57°43' E 011°58'0 0.2
2015-Jun-27 13:33N 57°43' E 011°57'2 1.7
2015-Jun-27 12:33N 57°42' E 011°55'3 2.9
2015-Jun-27 11:33N 57°41' E 011°50'0 0.0
2015-Jun-27 10:33N 57°41' E 011°50'3 2.6
2015-Jun-27 09:33N 57°42' E 011°54'2 2.1
2015-Jun-27 08:31N 57°43' E 011°58'0 0.0
2015-Jun-27 07:31N 57°43' E 011°58'0 0.0
2015-Jun-27 06:31N 57°43' E 011°58'0 0.0
2015-Jun-27 05:31N 57°43' E 011°58'0 0.0
2015-Jun-27 04:31N 57°43' E 011°58'0 0.0
2015-Jun-27 03:31N 57°43' E 011°58'0 0.0
2015-Jun-27 02:31N 57°43' E 011°58'0 0.0
2015-Jun-27 01:31N 57°43' E 011°58'0 0.0
2015-Jun-27 00:31N 57°43' E 011°58'0 0.0
2015-Jun-26 23:31N 57°43' E 011°58'0 0.0
2015-Jun-26 22:31N 57°43' E 011°58'0 0.0
2015-Jun-26 21:28N 57°43' E 011°58'0 0.0
2015-Jun-26 20:31N 57°43' E 011°58'0 0.0
2015-Jun-26 19:31N 57°43' E 011°58'0 0.0
2015-Jun-26 18:31N 57°43' E 011°58'0 0.0
2015-Jun-26 17:31N 57°43' E 011°58'0 0.0
2015-Jun-26 16:25N 57°43' E 011°58'0 0.0
2015-Jun-26 15:31N 57°43' E 011°58'0 0.0
2015-Jun-26 14:31N 57°43' E 011°58'0 0.0
2015-Jun-26 13:31N 57°43' E 011°58'0 0.0
2015-Jun-26 12:31N 57°43' E 011°58'0 0.0
2015-Jun-26 11:31N 57°43' E 011°58'0 0.0
2015-Jun-26 10:31N 57°43' E 011°58'0 0.0
2015-Jun-26 09:31N 57°43' E 011°58'0 0.0
2015-Jun-26 08:31N 57°43' E 011°58'0 0.0
2015-Jun-26 07:31N 57°43' E 011°58'0 0.0
2015-Jun-26 06:31N 57°43' E 011°58'0 0.0
2015-Jun-26 05:31N 57°43' E 011°58'0 0.0
2015-Jun-26 04:31N 57°43' E 011°58'0 0.0
2015-Jun-26 03:31N 57°43' E 011°58'0 0.0
2015-Jun-26 02:31N 57°43' E 011°58'0 0.0
2015-Jun-26 01:31N 57°43' E 011°58'0 0.0
2015-Jun-26 00:31N 57°43' E 011°58'0 0.0
2015-Jun-25 23:31N 57°43' E 011°58'0 0.0
2015-Jun-25 22:31N 57°43' E 011°58'0 0.0
2015-Jun-25 21:31N 57°43' E 011°58'0 0.0
2015-Jun-25 20:31N 57°43' E 011°58'0 0.0
2015-Jun-25 19:31N 57°43' E 011°58'0 0.0
2015-Jun-25 18:31N 57°43' E 011°58'0 0.0
2015-Jun-25 17:31N 57°43' E 011°58'0 0.0
2015-Jun-25 16:31N 57°43' E 011°58'0 0.0
2015-Jun-25 15:31N 57°43' E 011°58'0 0.4
2015-Jun-25 14:33N 57°43' E 011°57'2 1.5
2015-Jun-25 13:33N 57°42' E 011°55'4 4.0
2015-Jun-25 12:34N 57°40' E 011°48'  
Track history (hours):
 
Tides and Currents Weather Stations Pressure Air Temp Water Temp Dewpoint Dewpoint Depression Visibility Wind Speed Wind Dir Waves Ship Positions

Falken (Sweden)

Last reported at 2015-Jul-05 12:33 UTC. Time now 2015-Jul-05 12:48 UTC.
Position N 55°48' E 015°05'.

Length 40 m; draft 4.2 m.

Type: Sailing vessel. MMSI: 265070000.

Date/timePositionNaut miles runAvg speedWind from/ knotsBaromVisibWave heightAir tempDewpointWater temp
2015-Jul-05 12:33N 55°48' E 015°05'25 5.7
2015-Jul-05 08:08N 56°07' E 015°35'1 2.4
2015-Jul-05 07:34N 56°08' E 015°36'2 2.0
2015-Jul-05 06:33N 56°10' E 015°36'0 0.0
2015-Jul-05 05:33N 56°10' E 015°36'0 0.0
2015-Jul-05 04:33N 56°10' E 015°36'0 0.0
2015-Jul-05 03:27N 56°10' E 015°36'0 0.0
2015-Jul-05 02:27N 56°10' E 015°36'0 0.0
2015-Jul-05 01:33N 56°10' E 015°36'0 0.0
2015-Jul-05 00:33N 56°10' E 015°36'0 0.0
2015-Jul-04 23:33N 56°10' E 015°36'0 0.0
2015-Jul-04 22:27N 56°10' E 015°36'0 0.0
2015-Jul-04 21:33N 56°10' E 015°36'0 0.0
2015-Jul-04 20:33N 56°10' E 015°36'0 0.0
2015-Jul-04 19:33N 56°10' E 015°36'0 0.0
2015-Jul-04 18:33N 56°10' E 015°36'0 0.0
2015-Jul-04 17:33N 56°10' E 015°36'0 0.0
2015-Jul-04 16:24N 56°10' E 015°36'0 0.0
2015-Jul-04 15:33N 56°10' E 015°36'0 0.0
2015-Jul-04 14:33N 56°10' E 015°36'1 0.7
2015-Jul-04 13:33N 56°10' E 015°37'1 1.0
2015-Jul-04 12:32N 56°09' E 015°35'0 0.0
2015-Jul-04 11:32N 56°09' E 015°35'0 0.0
2015-Jul-04 10:26N 56°09' E 015°35'0 0.0
2015-Jul-04 09:32N 56°09' E 015°35'0 0.0
2015-Jul-04 08:32N 56°09' E 015°35'0 0.0
2015-Jul-04 07:32N 56°09' E 015°35'0 0.0
2015-Jul-04 06:20N 56°09' E 015°35'0 0.0
2015-Jul-04 04:32N 56°09' E 015°35'0 0.0
2015-Jul-04 03:32N 56°09' E 015°35'0 0.0
2015-Jul-04 02:32N 56°09' E 015°35'0 0.0
2015-Jul-04 01:32N 56°09' E 015°35'0 0.0
2015-Jul-04 00:32N 56°09' E 015°35'0 0.0
2015-Jul-03 23:20N 56°09' E 015°35'0 0.0
2015-Jul-03 12:26N 56°09' E 015°35'0 0.0
2015-Jul-03 11:32N 56°09' E 015°35'0 0.0
2015-Jul-03 10:32N 56°09' E 015°35'0 0.0
2015-Jul-03 09:32N 56°09' E 015°35'0 0.3
2015-Jul-03 08:27N 56°09' E 015°36'1 0.4
2015-Jul-03 06:19N 56°09' E 015°37'0 0.0
2015-Jul-03 01:13N 56°09' E 015°37'0 0.0
2015-Jul-03 00:31N 56°09' E 015°37'0 0.0
2015-Jul-02 23:31N 56°09' E 015°37'0 0.0
2015-Jul-02 22:28N 56°09' E 015°37'0 0.0
2015-Jul-02 21:31N 56°09' E 015°37'0 0.0
2015-Jul-02 20:25N 56°09' E 015°37'0 0.0
2015-Jul-02 19:16N 56°09' E 015°37'0 0.0
2015-Jul-02 17:31N 56°09' E 015°37'1 0.9
2015-Jul-02 16:34N 56°10' E 015°36'0 0.4
2015-Jul-02 15:32N 56°10' E 015°36'5 4.7
2015-Jul-02 14:32N 56°05' E 015°34'7 7.4
2015-Jul-02 13:33N 56°02' E 015°23'8 8.3
2015-Jul-02 12:33N 56°00' E 015°08'8 8.3
2015-Jul-02 11:33N 55°59' E 014°53'8 8.1
2015-Jul-02 10:33N 55°57' E 014°39'8 7.7
2015-Jul-02 09:33N 55°56' E 014°26'4 0.8
2015-Jul-02 04:19N 55°56' E 014°18'0 0.0
2015-Jul-02 03:28N 55°56' E 014°18'0 0.0
2015-Jul-02 00:31N 55°56' E 014°18'0 0.0
2015-Jul-01 23:28N 55°56' E 014°18'3 0.2
2015-Jul-01 06:24N 55°56' E 014°24'0 0.3
2015-Jul-01 05:28N 55°56' E 014°24'5 3.6
2015-Jul-01 04:13N 55°54' E 014°32'0 0.3
2015-Jul-01 03:27N 55°54' E 014°31'1 0.8
2015-Jul-01 02:32N 55°54' E 014°30'2 1.7
2015-Jul-01 01:32N 55°52' E 014°30'2 1.6
2015-Jul-01 00:33N 55°51' E 014°29'1 1.5
2015-Jun-30 23:33N 55°49' E 014°28'2 1.9
2015-Jun-30 22:25N 55°47' E 014°28'20 4.8
2015-Jun-30 18:09N 55°27' E 014°20'4 5.6
2015-Jun-30 17:31N 55°24' E 014°17'6 5.8
2015-Jun-30 16:32N 55°19' E 014°14'4 4.2
2015-Jun-30 15:32N 55°18' E 014°06'20 5.0
2015-Jun-30 11:33N 55°19' E 013°31'4 4.2
2015-Jun-30 10:33N 55°19' E 013°24'4 3.8
2015-Jun-30 09:32N 55°18' E 013°17'3 3.5
2015-Jun-30 08:33N 55°17' E 013°11'4 4.0
2015-Jun-30 07:33N 55°17' E 013°04'4 3.8
2015-Jun-30 06:32N 55°16' E 012°58'3 3.5
2015-Jun-30 05:33N 55°15' E 012°52'8 8.5
2015-Jun-30 04:33N 55°18' E 012°39'8 8.1
2015-Jun-30 03:33N 55°26' E 012°41'8 7.7
2015-Jun-30 02:33N 55°33' E 012°47'8 7.9
2015-Jun-30 01:33N 55°39' E 012°56'8 8.2
2015-Jun-30 00:33N 55°46' E 012°49'8 8.2
2015-Jun-29 23:33N 55°54' E 012°44'8 8.2
2015-Jun-29 22:33N 56°02' E 012°39'7 7.3
2015-Jun-29 21:33N 56°07' E 012°31'7 7.3
2015-Jun-29 20:33N 56°14' E 012°26'6 6.3
2015-Jun-29 19:33N 56°20' E 012°28'6 5.9
2015-Jun-29 18:33N 56°25' E 012°35'4 3.6
2015-Jun-29 17:33N 56°28' E 012°38'6 6.0
2015-Jun-29 16:33N 56°31' E 012°47'1 1.4
2015-Jun-29 15:33N 56°32' E 012°47'4 3.6
2015-Jun-29 14:33N 56°36' E 012°45'4 3.9
2015-Jun-29 13:33N 56°39' E 012°40'3 3.0
2015-Jun-29 12:33N 56°41' E 012°38'3 2.8
2015-Jun-29 11:33N 56°44' E 012°35'4 4.2
2015-Jun-29 10:33N 56°48' E 012°32'5 4.7
2015-Jun-29 09:33N 56°52' E 012°28'1 0.7
2015-Jun-29 08:33N 56°52' E 012°27'3 3.2
2015-Jun-29 07:33N 56°53' E 012°22'4 4.5
2015-Jun-29 06:33N 56°57' E 012°17'5 5.0
2015-Jun-29 05:33N 57°01' E 012°11'5 5.1
2015-Jun-29 04:33N 57°04' E 012°04'4 3.9
2015-Jun-29 03:33N 57°07' E 011°59'6 5.8
2015-Jun-29 02:33N 57°12' E 011°54'7 6.9
2015-Jun-29 01:33N 57°17' E 011°46'5 5.2
2015-Jun-29 00:33N 57°22' E 011°40'6 5.7
2015-Jun-28 23:33N 57°27' E 011°35'4 4.2
2015-Jun-28 22:33N 57°30' E 011°32'2 2.0
2015-Jun-28 21:33N 57°30' E 011°36'2 1.7
2015-Jun-28 20:33N 57°30' E 011°39'2 2.2
2015-Jun-28 19:33N 57°32' E 011°36'1 1.3
2015-Jun-28 18:33N 57°33' E 011°37'2 1.8
2015-Jun-28 17:33N 57°35' E 011°35'2 2.3
2015-Jun-28 16:33N 57°35' E 011°40'4 3.7
2015-Jun-28 15:33N 57°37' E 011°34'2 2.3
2015-Jun-28 14:34N 57°37' E 011°38'2 2.0
2015-Jun-28 13:34N 57°38' E 011°41'6 5.9
2015-Jun-28 12:34N 57°41' E 011°50'4 4.4
2015-Jun-28 11:33N 57°43' E 011°58'0 0.0
2015-Jun-28 10:31N 57°43' E 011°58'0 0.0
2015-Jun-28 09:31N 57°43' E 011°58'0 0.0
2015-Jun-28 08:31N 57°43' E 011°58'0 0.0
2015-Jun-28 07:31N 57°43' E 011°58'0 0.0
2015-Jun-28 06:31N 57°43' E 011°58'0 0.0
2015-Jun-28 05:31N 57°43' E 011°58'0 0.0
2015-Jun-28 04:31N 57°43' E 011°58'0 0.0
2015-Jun-28 03:31N 57°43' E 011°58'0 0.0
2015-Jun-28 02:31N 57°43' E 011°58'0 0.0
2015-Jun-28 01:31N 57°43' E 011°58'0 0.0
2015-Jun-28 00:31N 57°43' E 011°58'0 0.0
2015-Jun-27 23:31N 57°43' E 011°58'0 0.0
2015-Jun-27 22:31N 57°43' E 011°58'0 0.0
2015-Jun-27 21:31N 57°43' E 011°58'0 0.0
2015-Jun-27 20:28N 57°43' E 011°58'0 0.0
2015-Jun-27 19:31N 57°43' E 011°58'0 0.0
2015-Jun-27 18:31N 57°43' E 011°58'0 0.0
2015-Jun-27 17:31N 57°43' E 011°58'0 0.0
2015-Jun-27 16:31N 57°43' E 011°58'0 0.0
2015-Jun-27 15:31N 57°43' E 011°58'0 0.0
2015-Jun-27 14:31N 57°43' E 011°58'0 0.2
2015-Jun-27 13:33N 57°43' E 011°57'2 1.7
2015-Jun-27 12:33N 57°42' E 011°55'3 2.9
2015-Jun-27 11:33N 57°41' E 011°50'0 0.0
2015-Jun-27 10:33N 57°41' E 011°50'3 2.6
2015-Jun-27 09:33N 57°42' E 011°54'2 2.1
2015-Jun-27 08:31N 57°43' E 011°58'0 0.0
2015-Jun-27 07:31N 57°43' E 011°58'0 0.0
2015-Jun-27 06:31N 57°43' E 011°58'0 0.0
2015-Jun-27 05:31N 57°43' E 011°58'0 0.0
2015-Jun-27 04:31N 57°43' E 011°58'0 0.0
2015-Jun-27 03:31N 57°43' E 011°58'0 0.0
2015-Jun-27 02:31N 57°43' E 011°58'0 0.0
2015-Jun-27 01:31N 57°43' E 011°58'0 0.0
2015-Jun-27 00:31N 57°43' E 011°58'0 0.0
2015-Jun-26 23:31N 57°43' E 011°58'0 0.0
2015-Jun-26 22:31N 57°43' E 011°58'0 0.0
2015-Jun-26 21:28N 57°43' E 011°58'0 0.0
2015-Jun-26 20:31N 57°43' E 011°58'0 0.0
2015-Jun-26 19:31N 57°43' E 011°58'0 0.0
2015-Jun-26 18:31N 57°43' E 011°58'0 0.0
2015-Jun-26 17:31N 57°43' E 011°58'0 0.0
2015-Jun-26 16:25N 57°43' E 011°58'0 0.0
2015-Jun-26 15:31N 57°43' E 011°58'0 0.0
2015-Jun-26 14:31N 57°43' E 011°58'0 0.0
2015-Jun-26 13:31N 57°43' E 011°58'0 0.0
2015-Jun-26 12:31N 57°43' E 011°58'0 0.0
2015-Jun-26 11:31N 57°43' E 011°58'0 0.0
2015-Jun-26 10:31N 57°43' E 011°58'0 0.0
2015-Jun-26 09:31N 57°43' E 011°58'0 0.0
2015-Jun-26 08:31N 57°43' E 011°58'0 0.0
2015-Jun-26 07:31N 57°43' E 011°58'0 0.0
2015-Jun-26 06:31N 57°43' E 011°58'0 0.0
2015-Jun-26 05:31N 57°43' E 011°58'0 0.0
2015-Jun-26 04:31N 57°43' E 011°58'0 0.0
2015-Jun-26 03:31N 57°43' E 011°58'0 0.0
2015-Jun-26 02:31N 57°43' E 011°58'0 0.0
2015-Jun-26 01:31N 57°43' E 011°58'0 0.0
2015-Jun-26 00:31N 57°43' E 011°58'0 0.0
2015-Jun-25 23:31N 57°43' E 011°58'0 0.0
2015-Jun-25 22:31N 57°43' E 011°58'0 0.0
2015-Jun-25 21:31N 57°43' E 011°58'0 0.0
2015-Jun-25 20:31N 57°43' E 011°58'0 0.0
2015-Jun-25 19:31N 57°43' E 011°58'0 0.0
2015-Jun-25 18:31N 57°43' E 011°58'0 0.0
2015-Jun-25 17:31N 57°43' E 011°58'0 0.0
2015-Jun-25 16:31N 57°43' E 011°58'0 0.0
2015-Jun-25 15:31N 57°43' E 011°58'0 0.4
2015-Jun-25 14:33N 57°43' E 011°57'2 1.5
2015-Jun-25 13:33N 57°42' E 011°55'4 4.0
2015-Jun-25 12:34N 57°40' E 011°48'  

Dump ship's entire track history